Campanya meteocatpedra

Dades de l'estació automàtica Lleida - la Bordeta

?
?
Resum diari 20:00 TU
Dades diàries de l'estació meteorològica
Temperatura mitjana 19.1 °C
Temperatura màxima 28.2 °C 15:22 TU
Temperatura mínima 10.7 °C 5:04 TU
Humitat relativa mitjana 65%
Precipitació acumulada 0.0 mm
Ratxa màxima del vent (2 m) 13.7 km/h - 220º 17:08 TU

El tram horari està expressat en Temps Universal (TU). Cal sumar una hora en horari d'hivern i dues en horari d'estiu per passar a l'hora oficial.

Lleida - la Bordeta

Metadades estació meteorol´gica
Municipi Lleida
Comarca Segrià
Altitud 165 m
Data alta 24.07.2013
Estat actual Operativa
Dades de període
Període
TU
TM
°C
TX
°C
TN
°C
HRM
%
PPT
mm
VVM (2 m)
km/h
DVM (2 m)
graus
VVX (2 m)
km/h
00:00 - 00:30 13.1 13.6 12.5 93 0.0 0.0 351 1.4
00:30 - 01:00 12.3 12.5 12.2 95 0.0 0.0 53 1.8
01:00 - 01:30 12.1 12.5 11.9 95 0.0 0.0 48 1.4
01:30 - 02:00 12.4 12.5 12.3 96 0.0 0.0 60 1.1
02:00 - 02:30 12.3 12.5 12.2 96 0.0 0.4 7 2.9
02:30 - 03:00 12.2 12.3 12.2 96 0.0 0.0 2 0.4
03:00 - 03:30 12.1 12.2 12.0 97 0.0 0.0 0 0.0
03:30 - 04:00 11.7 12.0 11.5 97 0.0 0.0 0 0.0
04:00 - 04:30 11.6 11.8 11.3 97 0.0 0.0 85 2.2
04:30 - 05:00 11.0 11.5 10.7 97 0.0 0.0 342 1.4
05:00 - 05:30 10.9 11.1 10.7 97 0.0 0.0 33 2.2
05:30 - 06:00 11.3 11.6 11.1 98 0.0 0.0 39 1.1
06:00 - 06:30 11.9 12.3 11.6 97 0.0 0.4 229 3.6
06:30 - 07:00 12.8 13.5 12.2 94 0.0 0.7 324 2.5
07:00 - 07:30 14.3 14.9 13.5 87 0.0 1.4 267 4.7
07:30 - 08:00 15.2 15.7 14.8 84 0.0 2.2 283 6.1
08:00 - 08:30 16.9 17.7 15.7 75 0.0 1.8 6 6.1
08:30 - 09:00 18.2 18.6 17.5 69 0.0 2.2 8 7.2
09:00 - 09:30 19.2 20.3 18.5 66 0.0 1.1 74 3.2
09:30 - 10:00 20.6 21.4 20.0 61 0.0 1.8 37 7.2
10:00 - 10:30 22.0 22.6 21.1 56 0.0 1.8 58 7.2
10:30 - 11:00 22.9 23.5 22.2 49 0.0 2.2 45 6.5
11:00 - 11:30 23.7 24.0 23.2 46 0.0 2.9 7 7.9
11:30 - 12:00 24.6 25.5 23.8 41 0.0 3.2 23 9.7
12:00 - 12:30 25.5 26.5 24.8 39 0.0 2.9 337 9.0
12:30 - 13:00 25.9 26.8 24.9 39 0.0 2.5 32 8.3
13:00 - 13:30 26.6 27.2 25.9 37 0.0 2.2 25 7.2
13:30 - 14:00 26.9 27.6 26.3 36 0.0 2.9 351 9.0
14:00 - 14:30 27.4 28.0 26.7 36 0.0 2.5 61 8.6
14:30 - 15:00 27.6 27.9 27.4 36 0.0 2.2 58 10.1
15:00 - 15:30 27.8 28.2 27.2 36 0.0 2.2 61 7.6
15:30 - 16:00 27.9 28.2 27.3 36 0.0 2.9 37 10.8
16:00 - 16:30 27.8 28.1 27.4 36 0.0 1.8 55 7.9
16:30 - 17:00 27.4 27.9 26.4 36 0.0 2.2 145 13.3
17:00 - 17:30 25.8 26.3 25.4 35 0.0 5.0 216 13.7
17:30 - 18:00 24.9 25.3 24.3 37 0.0 2.2 211 10.1
18:00 - 18:30 23.2 24.2 22.2 42 0.0 0.7 230 4.7
18:30 - 19:00 20.7 22.2 19.5 49 0.0 0.4 235 2.5
19:00 - 19:30 19.2 19.6 17.7 50 0.0 0.4 208 2.2
19:30 - 20:00 17.5 18.3 16.8 54 0.0 0.4 106 3.2
20:00 - 20:30 16.1 16.6 15.6 61 0.0 0.0 59 2.2
20:30 - 21:00 (s/d) (s/d) (s/d) (s/d) (s/d) (s/d) (s/d) (s/d)

Les dades en taronja només han passat un control de qualitat automàtic. Resta pendent la seva validació definitiva.